sensor_id;sensor_type;location;lat;lon;timestamp;P1;durP1;ratioP1;P2;durP2;ratioP2
54464;SDS011;40374;49.480;20.016;2023-05-08T00:00:16;7.85;;;5.38;;
54464;SDS011;40374;49.480;20.016;2023-05-08T00:03:04;7.40;;;4.78;;
54464;SDS011;40374;49.480;20.016;2023-05-08T00:05:31;8.07;;;4.60;;
54464;SDS011;40374;49.480;20.016;2023-05-08T00:07:59;9.02;;;4.40;;
54464;SDS011;40374;49.480;20.016;2023-05-08T00:10:27;7.43;;;3.90;;
54464;SDS011;40374;49.480;20.016;2023-05-08T00:12:55;6.03;;;4.45;;
54464;SDS011;40374;49.480;20.016;2023-05-08T00:15:22;5.75;;;3.80;;
54464;SDS011;40374;49.480;20.016;2023-05-08T00:17:50;5.97;;;3.78;;
54464;SDS011;40374;49.480;20.016;2023-05-08T00:20:17;5.47;;;4.03;;
54464;SDS011;40374;49.480;20.016;2023-05-08T00:22:45;4.88;;;3.08;;
54464;SDS011;40374;49.480;20.016;2023-05-08T00:25:12;7.28;;;3.38;;
54464;SDS011;40374;49.480;20.016;2023-05-08T00:27:39;5.15;;;2.90;;
54464;SDS011;40374;49.480;20.016;2023-05-08T00:30:07;5.65;;;3.00;;
54464;SDS011;40374;49.480;20.016;2023-05-08T00:32:35;4.53;;;3.22;;
54464;SDS011;40374;49.480;20.016;2023-05-08T00:35:02;3.58;;;2.50;;
54464;SDS011;40374;49.480;20.016;2023-05-08T00:37:30;3.35;;;2.60;;
54464;SDS011;40374;49.480;20.016;2023-05-08T00:39:57;3.08;;;2.35;;
54464;SDS011;40374;49.480;20.016;2023-05-08T00:42:25;3.20;;;2.38;;
54464;SDS011;40374;49.480;20.016;2023-05-08T00:44:52;2.72;;;2.15;;
54464;SDS011;40374;49.480;20.016;2023-05-08T00:47:20;3.17;;;2.33;;
54464;SDS011;40374;49.480;20.016;2023-05-08T00:49:48;4.03;;;2.28;;
54464;SDS011;40374;49.480;20.016;2023-05-08T00:52:16;2.85;;;1.77;;
54464;SDS011;40374;49.480;20.016;2023-05-08T00:54:45;3.47;;;2.17;;
54464;SDS011;40374;49.480;20.016;2023-05-08T00:57:14;3.83;;;2.53;;
54464;SDS011;40374;49.480;20.016;2023-05-08T00:59:42;3.83;;;2.72;;
54464;SDS011;40374;49.480;20.016;2023-05-08T01:02:11;3.42;;;2.33;;
54464;SDS011;40374;49.480;20.016;2023-05-08T01:04:39;2.25;;;2.00;;
54464;SDS011;40374;49.480;20.016;2023-05-08T01:07:10;2.38;;;1.73;;
54464;SDS011;40374;49.480;20.016;2023-05-08T01:09:37;3.20;;;2.30;;
54464;SDS011;40374;49.480;20.016;2023-05-08T01:37:39;2.38;;;2.05;;
54464;SDS011;40374;49.480;20.016;2023-05-08T01:40:24;2.38;;;1.95;;
54464;SDS011;40374;49.480;20.016;2023-05-08T01:43:09;3.15;;;2.20;;
54464;SDS011;40374;49.480;20.016;2023-05-08T01:45:47;3.05;;;1.92;;
54464;SDS011;40374;49.480;20.016;2023-05-08T01:51:07;2.90;;;2.15;;
54464;SDS011;40374;49.480;20.016;2023-05-08T01:53:42;4.10;;;2.75;;
54464;SDS011;40374;49.480;20.016;2023-05-08T01:56:17;4.50;;;2.90;;
54464;SDS011;40374;49.480;20.016;2023-05-08T01:58:51;4.10;;;2.50;;
54464;SDS011;40374;49.480;20.016;2023-05-08T02:01:21;4.43;;;2.63;;
54464;SDS011;40374;49.480;20.016;2023-05-08T02:03:50;8.57;;;3.90;;
54464;SDS011;40374;49.480;20.016;2023-05-08T02:06:20;5.10;;;3.08;;
54464;SDS011;40374;49.480;20.016;2023-05-08T02:08:48;4.45;;;3.50;;
54464;SDS011;40374;49.480;20.016;2023-05-08T02:11:17;6.20;;;3.85;;
54464;SDS011;40374;49.480;20.016;2023-05-08T02:13:47;6.20;;;3.40;;
54464;SDS011;40374;49.480;20.016;2023-05-08T02:16:17;6.07;;;3.25;;
54464;SDS011;40374;49.480;20.016;2023-05-08T02:18:49;5.30;;;3.80;;
54464;SDS011;40374;49.480;20.016;2023-05-08T02:21:18;10.73;;;3.33;;
54464;SDS011;40374;49.480;20.016;2023-05-08T02:23:48;4.35;;;3.33;;
54464;SDS011;40374;49.480;20.016;2023-05-08T02:26:17;7.03;;;4.40;;
54464;SDS011;40374;49.480;20.016;2023-05-08T02:28:50;5.47;;;3.10;;
54464;SDS011;40374;49.480;20.016;2023-05-08T02:31:20;5.00;;;3.42;;
54464;SDS011;40374;49.480;20.016;2023-05-08T02:33:48;5.85;;;3.92;;
54464;SDS011;40374;49.480;20.016;2023-05-08T02:36:18;5.93;;;3.83;;
54464;SDS011;40374;49.480;20.016;2023-05-08T02:38:49;7.03;;;4.40;;
54464;SDS011;40374;49.480;20.016;2023-05-08T02:41:19;6.25;;;4.35;;
54464;SDS011;40374;49.480;20.016;2023-05-08T02:43:51;6.30;;;3.92;;
54464;SDS011;40374;49.480;20.016;2023-05-08T02:52:32;8.07;;;4.63;;
54464;SDS011;40374;49.480;20.016;2023-05-08T02:55:10;6.13;;;4.63;;
54464;SDS011;40374;49.480;20.016;2023-05-08T03:00:44;5.18;;;3.67;;
54464;SDS011;40374;49.480;20.016;2023-05-08T03:03:23;6.22;;;4.43;;
54464;SDS011;40374;49.480;20.016;2023-05-08T03:05:54;6.65;;;4.40;;
54464;SDS011;40374;49.480;20.016;2023-05-08T03:08:24;4.78;;;3.28;;
54464;SDS011;40374;49.480;20.016;2023-05-08T03:10:56;5.13;;;3.58;;
54464;SDS011;40374;49.480;20.016;2023-05-08T03:13:27;4.47;;;3.20;;
54464;SDS011;40374;49.480;20.016;2023-05-08T03:15:57;5.43;;;3.28;;
54464;SDS011;40374;49.480;20.016;2023-05-08T03:18:30;4.88;;;2.92;;
54464;SDS011;40374;49.480;20.016;2023-05-08T03:21:01;10.80;;;3.15;;
54464;SDS011;40374;49.480;20.016;2023-05-08T03:23:32;5.35;;;3.22;;
54464;SDS011;40374;49.480;20.016;2023-05-08T03:26:01;3.03;;;2.17;;
54464;SDS011;40374;49.480;20.016;2023-05-08T03:28:29;4.90;;;2.90;;
54464;SDS011;40374;49.480;20.016;2023-05-08T03:30:59;4.03;;;2.75;;
54464;SDS011;40374;49.480;20.016;2023-05-08T03:33:27;4.55;;;2.97;;
54464;SDS011;40374;49.480;20.016;2023-05-08T03:35:57;4.95;;;2.95;;
54464;SDS011;40374;49.480;20.016;2023-05-08T03:38:25;4.38;;;3.03;;
54464;SDS011;40374;49.480;20.016;2023-05-08T03:40:53;6.55;;;3.67;;
54464;SDS011;40374;49.480;20.016;2023-05-08T03:43:20;5.32;;;3.42;;
54464;SDS011;40374;49.480;20.016;2023-05-08T03:45:48;6.03;;;3.92;;
54464;SDS011;40374;49.480;20.016;2023-05-08T03:48:17;8.15;;;2.85;;
54464;SDS011;40374;49.480;20.016;2023-05-08T03:50:45;5.00;;;3.17;;
54464;SDS011;40374;49.480;20.016;2023-05-08T03:53:14;2.42;;;2.22;;
54464;SDS011;40374;49.480;20.016;2023-05-08T04:06:39;5.05;;;2.90;;
54464;SDS011;40374;49.480;20.016;2023-05-08T04:09:35;2.40;;;2.20;;
54464;SDS011;40374;49.480;20.016;2023-05-08T04:12:19;5.03;;;2.95;;
54464;SDS011;40374;49.480;20.016;2023-05-08T04:14:52;4.03;;;2.72;;
54464;SDS011;40374;49.480;20.016;2023-05-08T04:17:27;5.40;;;3.38;;
54464;SDS011;40374;49.480;20.016;2023-05-08T04:20:18;3.75;;;2.47;;
54464;SDS011;40374;49.480;20.016;2023-05-08T04:22:49;5.80;;;2.33;;
54464;SDS011;40374;49.480;20.016;2023-05-08T04:25:17;5.68;;;2.72;;
54464;SDS011;40374;49.480;20.016;2023-05-08T04:27:47;3.75;;;2.60;;
54464;SDS011;40374;49.480;20.016;2023-05-08T04:30:18;6.75;;;3.30;;
54464;SDS011;40374;49.480;20.016;2023-05-08T04:32:46;10.60;;;4.22;;
54464;SDS011;40374;49.480;20.016;2023-05-08T04:35:15;5.55;;;3.15;;
54464;SDS011;40374;49.480;20.016;2023-05-08T04:37:44;9.60;;;5.10;;
54464;SDS011;40374;49.480;20.016;2023-05-08T04:40:13;19.55;;;8.80;;
54464;SDS011;40374;49.480;20.016;2023-05-08T04:42:42;15.18;;;8.48;;
54464;SDS011;40374;49.480;20.016;2023-05-08T04:45:15;12.20;;;6.15;;
54464;SDS011;40374;49.480;20.016;2023-05-08T04:47:43;7.38;;;4.50;;
54464;SDS011;40374;49.480;20.016;2023-05-08T04:50:10;16.08;;;7.22;;
54464;SDS011;40374;49.480;20.016;2023-05-08T04:52:38;7.03;;;4.93;;
54464;SDS011;40374;49.480;20.016;2023-05-08T04:55:05;11.05;;;5.28;;
54464;SDS011;40374;49.480;20.016;2023-05-08T04:57:36;10.65;;;5.53;;
54464;SDS011;40374;49.480;20.016;2023-05-08T05:00:04;7.78;;;3.90;;
54464;SDS011;40374;49.480;20.016;2023-05-08T05:02:36;15.07;;;3.97;;
54464;SDS011;40374;49.480;20.016;2023-05-08T05:05:04;6.75;;;3.97;;
54464;SDS011;40374;49.480;20.016;2023-05-08T05:07:33;12.20;;;3.67;;
54464;SDS011;40374;49.480;20.016;2023-05-08T05:10:00;9.00;;;2.40;;
54464;SDS011;40374;49.480;20.016;2023-05-08T05:12:30;7.95;;;2.95;;
54464;SDS011;40374;49.480;20.016;2023-05-08T05:14:57;4.32;;;2.67;;
54464;SDS011;40374;49.480;20.016;2023-05-08T05:17:29;3.90;;;2.50;;
54464;SDS011;40374;49.480;20.016;2023-05-08T05:19:57;4.82;;;3.55;;
54464;SDS011;40374;49.480;20.016;2023-05-08T05:22:27;8.35;;;4.68;;
54464;SDS011;40374;49.480;20.016;2023-05-08T05:24:54;6.68;;;4.05;;
54464;SDS011;40374;49.480;20.016;2023-05-08T05:27:24;5.72;;;3.35;;
54464;SDS011;40374;49.480;20.016;2023-05-08T05:29:51;8.05;;;2.53;;
54464;SDS011;40374;49.480;20.016;2023-05-08T05:32:19;8.55;;;2.65;;
54464;SDS011;40374;49.480;20.016;2023-05-08T19:54:37;83.90;;;29.33;;
54464;SDS011;40374;49.480;20.016;2023-05-08T19:57:04;88.38;;;35.28;;
54464;SDS011;40374;49.480;20.016;2023-05-08T19:59:36;79.57;;;31.80;;
54464;SDS011;40374;49.480;20.016;2023-05-08T20:02:05;81.90;;;33.25;;
54464;SDS011;40374;49.480;20.016;2023-05-08T20:04:33;90.30;;;34.28;;
54464;SDS011;40374;49.480;20.016;2023-05-08T20:07:25;107.93;;;38.03;;
54464;SDS011;40374;49.480;20.016;2023-05-08T20:09:53;121.65;;;56.65;;
54464;SDS011;40374;49.480;20.016;2023-05-08T20:12:21;57.40;;;24.13;;
54464;SDS011;40374;49.480;20.016;2023-05-08T20:14:49;41.35;;;18.23;;
54464;SDS011;40374;49.480;20.016;2023-05-08T20:17:18;43.85;;;15.23;;
54464;SDS011;40374;49.480;20.016;2023-05-08T20:19:46;41.53;;;17.58;;
54464;SDS011;40374;49.480;20.016;2023-05-08T20:22:15;53.67;;;19.75;;
54464;SDS011;40374;49.480;20.016;2023-05-08T20:24:46;65.20;;;26.80;;
54464;SDS011;40374;49.480;20.016;2023-05-08T20:27:14;75.65;;;32.13;;
54464;SDS011;40374;49.480;20.016;2023-05-08T20:29:41;51.75;;;22.10;;
54464;SDS011;40374;49.480;20.016;2023-05-08T20:32:09;47.20;;;20.35;;
54464;SDS011;40374;49.480;20.016;2023-05-08T20:34:40;36.80;;;16.10;;
54464;SDS011;40374;49.480;20.016;2023-05-08T20:37:10;36.45;;;17.17;;
54464;SDS011;40374;49.480;20.016;2023-05-08T20:39:37;41.35;;;18.38;;
54464;SDS011;40374;49.480;20.016;2023-05-08T20:42:05;32.50;;;16.23;;
54464;SDS011;40374;49.480;20.016;2023-05-08T20:44:33;36.35;;;15.07;;
54464;SDS011;40374;49.480;20.016;2023-05-08T20:47:01;45.13;;;19.63;;
54464;SDS011;40374;49.480;20.016;2023-05-08T20:49:28;52.03;;;20.05;;
54464;SDS011;40374;49.480;20.016;2023-05-08T20:51:56;50.08;;;21.33;;
54464;SDS011;40374;49.480;20.016;2023-05-08T20:54:23;48.35;;;20.88;;
54464;SDS011;40374;49.480;20.016;2023-05-08T20:56:51;49.85;;;20.42;;
54464;SDS011;40374;49.480;20.016;2023-05-08T20:59:19;52.55;;;20.45;;
54464;SDS011;40374;49.480;20.016;2023-05-08T21:01:47;48.97;;;22.08;;
54464;SDS011;40374;49.480;20.016;2023-05-08T21:04:15;47.78;;;21.80;;
54464;SDS011;40374;49.480;20.016;2023-05-08T21:06:43;59.55;;;23.35;;
54464;SDS011;40374;49.480;20.016;2023-05-08T21:09:10;53.30;;;24.35;;
54464;SDS011;40374;49.480;20.016;2023-05-08T21:11:39;60.80;;;23.00;;
54464;SDS011;40374;49.480;20.016;2023-05-08T21:14:06;64.75;;;24.80;;
54464;SDS011;40374;49.480;20.016;2023-05-08T21:16:34;50.28;;;22.85;;
54464;SDS011;40374;49.480;20.016;2023-05-08T21:19:02;59.33;;;26.45;;
54464;SDS011;40374;49.480;20.016;2023-05-08T21:21:30;60.22;;;26.15;;
54464;SDS011;40374;49.480;20.016;2023-05-08T21:23:57;67.88;;;27.65;;
54464;SDS011;40374;49.480;20.016;2023-05-08T21:26:25;67.05;;;28.20;;
54464;SDS011;40374;49.480;20.016;2023-05-08T21:28:53;67.13;;;27.35;;
54464;SDS011;40374;49.480;20.016;2023-05-08T21:31:21;61.90;;;25.63;;
54464;SDS011;40374;49.480;20.016;2023-05-08T21:33:49;70.38;;;26.77;;
54464;SDS011;40374;49.480;20.016;2023-05-08T21:36:18;57.65;;;25.92;;
54464;SDS011;40374;49.480;20.016;2023-05-08T21:38:45;64.63;;;26.85;;
54464;SDS011;40374;49.480;20.016;2023-05-08T21:41:13;66.18;;;28.48;;
54464;SDS011;40374;49.480;20.016;2023-05-08T21:43:40;67.38;;;29.73;;
54464;SDS011;40374;49.480;20.016;2023-05-08T21:46:08;92.43;;;36.95;;
54464;SDS011;40374;49.480;20.016;2023-05-08T21:48:35;104.93;;;38.13;;
54464;SDS011;40374;49.480;20.016;2023-05-08T21:51:03;86.82;;;34.83;;
54464;SDS011;40374;49.480;20.016;2023-05-08T21:53:32;79.28;;;34.00;;
54464;SDS011;40374;49.480;20.016;2023-05-08T21:56:00;111.93;;;40.15;;
54464;SDS011;40374;49.480;20.016;2023-05-08T21:58:28;143.20;;;48.83;;
54464;SDS011;40374;49.480;20.016;2023-05-08T22:00:56;151.30;;;49.00;;
54464;SDS011;40374;49.480;20.016;2023-05-08T22:03:24;147.63;;;50.60;;
54464;SDS011;40374;49.480;20.016;2023-05-08T22:05:52;115.45;;;41.58;;
54464;SDS011;40374;49.480;20.016;2023-05-08T22:08:21;122.07;;;43.67;;
54464;SDS011;40374;49.480;20.016;2023-05-08T22:10:49;142.52;;;49.15;;
54464;SDS011;40374;49.480;20.016;2023-05-08T22:13:16;152.15;;;51.25;;
54464;SDS011;40374;49.480;20.016;2023-05-08T22:15:44;133.55;;;48.88;;
54464;SDS011;40374;49.480;20.016;2023-05-08T22:18:12;141.65;;;49.28;;
54464;SDS011;40374;49.480;20.016;2023-05-08T22:20:40;137.80;;;49.50;;
54464;SDS011;40374;49.480;20.016;2023-05-08T22:23:07;135.50;;;49.50;;
54464;SDS011;40374;49.480;20.016;2023-05-08T22:25:44;148.10;;;53.72;;
54464;SDS011;40374;49.480;20.016;2023-05-08T22:28:11;160.88;;;52.15;;
54464;SDS011;40374;49.480;20.016;2023-05-08T22:30:39;159.18;;;58.22;;
54464;SDS011;40374;49.480;20.016;2023-05-08T22:33:06;164.13;;;60.42;;
54464;SDS011;40374;49.480;20.016;2023-05-08T22:35:34;128.75;;;46.55;;
54464;SDS011;40374;49.480;20.016;2023-05-08T22:38:01;119.55;;;42.55;;
54464;SDS011;40374;49.480;20.016;2023-05-08T22:40:29;123.25;;;44.55;;
54464;SDS011;40374;49.480;20.016;2023-05-08T22:42:57;127.30;;;45.08;;
54464;SDS011;40374;49.480;20.016;2023-05-08T22:45:25;131.68;;;48.33;;
54464;SDS011;40374;49.480;20.016;2023-05-08T22:47:53;133.23;;;45.00;;
54464;SDS011;40374;49.480;20.016;2023-05-08T22:50:21;115.55;;;44.97;;
54464;SDS011;40374;49.480;20.016;2023-05-08T22:52:48;121.40;;;45.55;;
54464;SDS011;40374;49.480;20.016;2023-05-08T22:55:16;137.73;;;46.03;;
54464;SDS011;40374;49.480;20.016;2023-05-08T22:57:46;95.95;;;37.20;;
54464;SDS011;40374;49.480;20.016;2023-05-08T23:00:14;115.47;;;43.30;;
54464;SDS011;40374;49.480;20.016;2023-05-08T23:02:42;97.35;;;41.15;;
54464;SDS011;40374;49.480;20.016;2023-05-08T23:05:10;101.03;;;38.95;;
54464;SDS011;40374;49.480;20.016;2023-05-08T23:07:38;100.05;;;36.50;;
54464;SDS011;40374;49.480;20.016;2023-05-08T23:10:07;83.55;;;34.08;;
54464;SDS011;40374;49.480;20.016;2023-05-08T23:12:34;79.93;;;34.17;;
54464;SDS011;40374;49.480;20.016;2023-05-08T23:15:03;99.88;;;38.28;;
54464;SDS011;40374;49.480;20.016;2023-05-08T23:17:30;86.93;;;34.47;;
54464;SDS011;40374;49.480;20.016;2023-05-08T23:19:58;70.72;;;32.55;;
54464;SDS011;40374;49.480;20.016;2023-05-08T23:22:25;81.90;;;34.90;;
54464;SDS011;40374;49.480;20.016;2023-05-08T23:24:54;77.55;;;35.45;;
54464;SDS011;40374;49.480;20.016;2023-05-08T23:27:22;83.05;;;36.20;;
54464;SDS011;40374;49.480;20.016;2023-05-08T23:29:49;71.25;;;30.10;;
54464;SDS011;40374;49.480;20.016;2023-05-08T23:32:16;78.88;;;32.10;;
54464;SDS011;40374;49.480;20.016;2023-05-08T23:34:44;69.82;;;32.55;;
54464;SDS011;40374;49.480;20.016;2023-05-08T23:37:11;70.97;;;28.35;;
54464;SDS011;40374;49.480;20.016;2023-05-08T23:39:39;72.50;;;30.63;;
54464;SDS011;40374;49.480;20.016;2023-05-08T23:42:07;73.93;;;30.48;;
54464;SDS011;40374;49.480;20.016;2023-05-08T23:44:36;81.18;;;35.35;;
54464;SDS011;40374;49.480;20.016;2023-05-08T23:47:04;71.38;;;32.78;;
54464;SDS011;40374;49.480;20.016;2023-05-08T23:49:31;76.85;;;36.08;;
54464;SDS011;40374;49.480;20.016;2023-05-08T23:51:58;75.53;;;34.78;;
54464;SDS011;40374;49.480;20.016;2023-05-08T23:54:26;83.07;;;38.90;;
54464;SDS011;40374;49.480;20.016;2023-05-08T23:56:54;86.47;;;38.08;;
54464;SDS011;40374;49.480;20.016;2023-05-08T23:59:22;58.38;;;26.60;;
